Canaan, IN (47224)

5:30 PM EST on February 12, 2016 (GMT -0500)
APRSWXNET | | Change Station
CLOSE
Current Station
Personal Weather Station
Location: Cross Plains, IN
Elevation: 639 ft
Nearby Weather Stations

Elev 639 ft 38.97 °N, 85.15 °W | Updated 21 minutes ago

Overcast
Overcast
29 °F
Feels Like 24 °F
N
5
Wind Variable Wind from NE
Gusts 12.0 mph

Today
High -- | Low -- °F
--% Chance of Precip.
Yesterday
High -- | Low -- °F
Precip. -- in
Pressure 30.12 in
Visibility 10.0 miles
Clouds Mostly Cloudy 3200 ft
Overcast 3900 ft
Windchill 24 °F
Dew Point 20 °F
Humidity 70%
Rainfall in
Snow Depth Not available.
7:36 AM 6:14 PM
Waxing Crescent, 24% visible
METAR KCVG 122152Z 29015G21KT 10SM BKN032 OVC039 M02/M08 A3010 RMK AO2 SLP200 OCNL -SN T10221083
Pressure 30.12 in
Visibility 10.0 miles
Clouds Mostly Cloudy 3200 ft
Overcast 3900 ft
Windchill 24 °F
Dew Point 20 °F
Humidity 70%
Rainfall in
Snow Depth Not available.
7:36 AM 6:14 PM
Waxing Crescent, 24% visible
METAR KCVG 122152Z 29015G21KT 10SM BKN032 OVC039 M02/M08 A3010 RMK AO2 SLP200 OCNL -SN T10221083

10-Day Weather Forecast

Almanac

Astronomy

Feb. 12, 2016 Rise Set
Actual Time
Civil Twilight
Nautical Twilight
Astronomical Twilight
Moon
Length of Visible Light
Length of Day
Tomorrow will be .
, % of the Moon is Illuminated

Today's Extremes

State Highs State Lows

Community

WunderPhotos

Upload Photos

1,892,421 photos uploaded!

WunderBlog® & News

Nearby

Air Quality

  Air Quality AQ Index Pollutant
Not available.

Snow Depth

Station Depth Elevation

Earthquake Activity

City Distance Mag. Time & Date
Minimum magnitude displayed is 2.5.

Coastal Water Temperatures

Place Temperature

Stations

Nearby Weather Stations

Station Location Temp. Windchill Dew Point Humidity Wind Precip. Elev Updated Type
                   

Watches & Warnings

There are currently no watches in effect.